createdAt,value
2018-05-15T00:01:51.598Z,83.90
2018-05-15T00:04:18.692Z,83.40
2018-05-15T00:06:45.025Z,83.40
2018-05-15T00:09:11.421Z,83.10
2018-05-15T00:11:38.916Z,82.50
2018-05-15T00:14:05.262Z,82.50
2018-05-15T00:16:31.625Z,83.10
2018-05-15T00:18:57.950Z,83.90
2018-05-15T00:21:24.538Z,84.50
2018-05-15T00:23:50.986Z,84.50
2018-05-15T00:26:17.394Z,84.10
2018-05-15T00:28:43.762Z,83.70
2018-05-15T00:31:10.390Z,83.20
2018-05-15T00:33:36.786Z,83.50
2018-05-15T00:36:03.473Z,83.70
2018-05-15T00:38:29.908Z,83.30
2018-05-15T00:40:56.762Z,83.50
2018-05-15T00:43:23.179Z,83.60
2018-05-15T00:45:49.780Z,83.90
2018-05-15T00:48:16.206Z,83.30
2018-05-15T00:50:42.982Z,82.80
2018-05-15T00:53:09.419Z,83.00
2018-05-15T00:55:44.031Z,82.40
2018-05-15T00:58:10.441Z,81.90
2018-05-15T01:00:36.975Z,82.30
2018-05-15T01:03:03.657Z,81.80
2018-05-15T01:05:30.378Z,81.80
2018-05-15T01:07:56.876Z,82.50
2018-05-15T01:10:24.045Z,82.50
2018-05-15T01:12:50.546Z,82.40
2018-05-15T01:15:17.921Z,81.40
2018-05-15T01:17:44.325Z,81.30
2018-05-15T01:20:12.395Z,82.90
2018-05-15T01:22:39.734Z,82.80
2018-05-15T01:25:06.374Z,81.90
2018-05-15T01:27:32.939Z,82.30
2018-05-15T01:29:59.627Z,80.90
2018-05-15T01:32:26.182Z,80.60
2018-05-15T01:34:52.725Z,80.70
2018-05-15T01:37:19.429Z,80.80
2018-05-15T01:39:46.744Z,81.50
2018-05-15T01:42:14.036Z,82.80
2018-05-15T01:44:40.504Z,82.70
2018-05-15T01:47:08.019Z,82.60
2018-05-15T01:49:34.623Z,81.00
2018-05-15T01:52:01.149Z,81.10
2018-05-15T01:54:27.690Z,81.20
2018-05-15T01:56:55.100Z,82.50
2018-05-15T01:59:22.412Z,83.10
2018-05-15T02:01:48.894Z,83.00
2018-05-15T02:04:16.244Z,82.60
2018-05-15T02:06:42.807Z,82.60
2018-05-15T02:09:09.385Z,82.60
2018-05-15T02:11:36.850Z,82.50
2018-05-15T02:14:04.135Z,82.50
2018-05-15T02:16:30.794Z,82.50
2018-05-15T02:18:57.750Z,82.90
2018-05-15T02:21:24.362Z,82.60
2018-05-15T02:23:51.769Z,83.00
2018-05-15T02:26:19.026Z,83.80
2018-05-15T02:28:45.422Z,83.70
2018-05-15T02:31:12.067Z,82.00
2018-05-15T02:33:38.638Z,81.70
2018-05-15T02:36:05.354Z,81.70
2018-05-15T02:38:32.126Z,81.50
2018-05-15T02:40:58.582Z,81.60
2018-05-15T02:43:25.039Z,81.40
2018-05-15T02:45:51.632Z,81.50
2018-05-15T02:48:18.208Z,82.20
2018-05-15T02:50:44.730Z,82.30
2018-05-15T02:53:11.334Z,81.90
2018-05-15T02:55:38.050Z,82.00
2018-05-15T02:58:05.577Z,80.90
2018-05-15T03:00:32.154Z,81.00
2018-05-15T03:02:58.675Z,81.30
2018-05-15T03:05:26.234Z,81.50
2018-05-15T03:07:53.435Z,81.80
2018-05-15T03:10:20.010Z,81.80
2018-05-15T03:12:46.481Z,81.60
2018-05-15T03:15:13.841Z,82.20
2018-05-15T03:17:41.066Z,81.90
2018-05-15T03:20:07.653Z,81.80
2018-05-15T03:22:34.436Z,81.70
2018-05-15T03:25:00.912Z,81.80
2018-05-15T03:27:27.364Z,81.30
2018-05-15T03:29:53.890Z,81.20
2018-05-15T03:32:21.564Z,81.50
2018-05-15T03:34:48.107Z,81.30
2018-05-15T03:37:14.786Z,81.00
2018-05-15T03:39:41.264Z,81.40
2018-05-15T03:42:07.856Z,80.60
2018-05-15T03:44:34.505Z,80.40
2018-05-15T03:47:01.769Z,79.40
2018-05-15T03:49:28.204Z,79.30
2018-05-15T03:51:54.703Z,79.40
2018-05-15T03:54:22.109Z,80.70
2018-05-15T03:56:48.693Z,80.60
2018-05-15T03:59:15.911Z,80.30
2018-05-15T04:01:54.338Z,80.30
2018-05-15T04:04:33.085Z,79.60
2018-05-15T04:07:11.946Z,80.50
2018-05-15T04:09:39.177Z,81.40
2018-05-15T04:12:06.608Z,82.00
2018-05-15T04:14:34.980Z,82.40
2018-05-15T04:17:01.421Z,82.30
2018-05-15T04:19:27.885Z,82.00
2018-05-15T04:21:55.076Z,81.30
2018-05-15T04:24:21.620Z,81.20
2018-05-15T04:26:48.145Z,81.70
2018-05-15T04:29:14.743Z,82.10
2018-05-15T04:31:41.982Z,81.60
2018-05-15T04:34:09.184Z,81.70
2018-05-15T04:36:36.018Z,81.60
2018-05-15T04:39:02.591Z,81.60
2018-05-15T04:41:29.027Z,82.20
2018-05-15T04:43:55.696Z,81.90
2018-05-15T04:46:23.069Z,82.20
2018-05-15T04:48:49.707Z,82.20
2018-05-15T04:51:16.461Z,82.50
2018-05-15T04:53:43.207Z,81.90
2018-05-15T04:56:10.002Z,82.20
2018-05-15T04:58:37.316Z,81.90
2018-05-15T05:01:04.438Z,81.40
2018-05-15T05:03:31.454Z,80.90
2018-05-15T05:05:58.660Z,79.50
2018-05-15T05:08:25.127Z,79.40
2018-05-15T05:10:51.732Z,77.80
2018-05-15T05:13:18.196Z,76.90
2018-05-15T05:15:44.740Z,77.20
2018-05-15T05:18:11.232Z,78.10
2018-05-15T05:20:37.828Z,78.60
2018-05-15T05:23:05.244Z,79.10
2018-05-15T05:25:31.849Z,79.10
2018-05-15T05:27:58.552Z,78.90
2018-05-15T05:30:25.033Z,79.90
2018-05-15T05:32:51.572Z,79.60
2018-05-15T05:35:18.016Z,80.10
2018-05-15T05:37:44.515Z,79.60
2018-05-15T05:40:11.047Z,79.30
2018-05-15T05:42:38.144Z,79.00
2018-05-15T05:45:05.619Z,78.40
2018-05-15T05:47:32.532Z,78.30
2018-05-15T05:49:59.071Z,79.10
2018-05-15T05:52:25.781Z,79.30
2018-05-15T05:54:52.322Z,79.70
2018-05-15T05:57:18.994Z,79.60
2018-05-15T05:59:46.367Z,79.90
2018-05-15T06:02:13.013Z,79.80
2018-05-15T06:04:39.450Z,79.30
2018-05-15T06:07:06.876Z,79.60
2018-05-15T06:09:33.229Z,79.50
2018-05-15T06:11:59.578Z,80.00
2018-05-15T06:14:26.072Z,80.50
2018-05-15T06:16:53.336Z,81.10
2018-05-15T06:19:19.718Z,81.00
2018-05-15T06:21:46.138Z,80.00
2018-05-15T06:24:12.478Z,80.60
2018-05-15T06:26:39.022Z,81.00
2018-05-15T06:29:05.993Z,81.80
2018-05-15T06:31:32.322Z,80.90
2018-05-15T06:33:58.677Z,80.90
2018-05-15T06:36:25.117Z,81.10
2018-05-15T06:38:51.485Z,81.20
2018-05-15T06:41:17.810Z,81.80
2018-05-15T06:43:44.889Z,80.70
2018-05-15T06:46:11.321Z,80.60
2018-05-15T06:48:37.806Z,81.30
2018-05-15T06:51:04.161Z,80.50
2018-05-15T06:53:30.505Z,80.90
2018-05-15T06:55:56.809Z,80.40
2018-05-15T06:58:23.886Z,79.70
2018-05-15T07:00:50.205Z,79.70
2018-05-15T07:03:16.505Z,79.40
2018-05-15T07:05:42.845Z,79.30
2018-05-15T07:08:09.885Z,80.80
2018-05-15T07:10:36.205Z,80.10
2018-05-15T07:13:03.361Z,81.70
2018-05-15T07:15:29.674Z,81.70
2018-05-15T07:17:55.981Z,82.20
2018-05-15T07:20:22.380Z,81.00
2018-05-15T07:22:49.442Z,82.40
2018-05-15T07:25:15.757Z,82.40
2018-05-15T07:27:42.858Z,81.80
2018-05-15T07:30:09.213Z,81.80
2018-05-15T07:32:36.386Z,83.10
2018-05-15T07:35:02.805Z,83.10
2018-05-15T07:37:30.034Z,83.70
2018-05-15T07:39:56.438Z,83.60
2018-05-15T07:42:22.754Z,84.00
2018-05-15T07:44:49.064Z,84.10
2018-05-15T07:47:16.177Z,84.70
2018-05-15T07:49:42.521Z,84.70
2018-05-15T07:52:08.862Z,84.50
2018-05-15T07:54:35.330Z,84.60
2018-05-15T07:57:02.623Z,86.00
2018-05-15T07:59:28.986Z,85.20
2018-05-15T08:01:55.305Z,84.50
2018-05-15T08:04:21.719Z,84.60
2018-05-15T08:06:48.193Z,84.70
2018-05-15T08:09:14.506Z,85.10
2018-05-15T08:11:41.677Z,85.00
2018-05-15T08:14:08.070Z,85.00
2018-05-15T08:16:34.638Z,84.50
2018-05-15T08:19:01.001Z,83.70
2018-05-15T08:21:27.317Z,84.00
2018-05-15T08:23:53.637Z,84.60
2018-05-15T08:26:19.966Z,84.80
2018-05-15T08:28:46.294Z,84.40
2018-05-15T08:31:13.390Z,84.20
2018-05-15T08:33:39.766Z,84.10
2018-05-15T08:36:06.817Z,83.50
2018-05-15T08:38:33.913Z,83.60
2018-05-15T08:41:00.253Z,83.50
2018-05-15T08:43:26.569Z,83.70
2018-05-15T08:45:53.070Z,83.20
2018-05-15T08:48:19.394Z,83.10
2018-05-15T08:50:46.471Z,83.90
2018-05-15T08:53:12.793Z,83.90
2018-05-15T08:55:39.160Z,83.70
2018-05-15T08:58:05.570Z,83.90
2018-05-15T09:00:31.897Z,84.50
2018-05-15T09:02:58.237Z,83.90
2018-05-15T09:05:24.586Z,83.50
2018-05-15T09:07:50.929Z,82.90
2018-05-15T09:10:17.281Z,82.60
2018-05-15T09:12:43.677Z,82.70
2018-05-15T09:15:09.999Z,82.20
2018-05-15T09:17:36.945Z,82.20
2018-05-15T09:20:03.313Z,82.40
2018-05-15T09:22:29.657Z,82.80
2018-05-15T09:24:56.765Z,83.30
2018-05-15T09:27:23.222Z,83.30
2018-05-15T09:29:49.534Z,83.70
2018-05-15T09:32:16.617Z,84.00
2018-05-15T09:34:43.700Z,82.40
2018-05-15T09:37:10.938Z,83.00
2018-05-15T09:39:37.656Z,82.80
2018-05-15T09:42:04.721Z,83.90
2018-05-15T09:44:31.022Z,83.80
2018-05-15T09:46:57.751Z,83.60
2018-05-15T09:49:24.050Z,83.20
2018-05-15T09:51:51.125Z,79.80
2018-05-15T09:54:17.490Z,79.80
2018-05-15T09:56:44.093Z,79.60
2018-05-15T09:59:10.441Z,76.90
2018-05-15T10:01:36.901Z,76.00
2018-05-15T10:04:03.978Z,76.40
2018-05-15T10:06:30.582Z,76.30
2018-05-15T10:08:56.923Z,75.60
2018-05-15T10:11:23.234Z,76.90
2018-05-15T10:13:50.285Z,75.40
2018-05-15T10:16:16.963Z,75.40
2018-05-15T10:18:44.261Z,75.60
2018-05-15T10:21:10.708Z,75.50
2018-05-15T10:23:37.898Z,74.40
2018-05-15T10:26:04.229Z,74.40
2018-05-15T10:28:30.557Z,73.90
2018-05-15T10:30:56.902Z,71.80
2018-05-15T10:33:23.211Z,67.60
2018-05-15T10:35:50.281Z,67.10
2018-05-15T10:38:16.620Z,67.10
2018-05-15T10:40:42.985Z,65.90
2018-05-15T10:43:10.046Z,64.10
2018-05-15T10:45:36.434Z,64.00
2018-05-15T10:48:02.783Z,64.00
2018-05-15T10:50:29.135Z,63.20
2018-05-15T10:52:55.445Z,60.50
2018-05-15T10:55:21.778Z,59.40
2018-05-15T10:57:48.129Z,59.30
2018-05-15T11:00:15.198Z,57.90
2018-05-15T11:02:42.329Z,56.20
2018-05-15T11:05:12.416Z,56.60
2018-05-15T11:07:38.829Z,56.50
2018-05-15T11:10:05.173Z,55.20
2018-05-15T11:12:31.521Z,55.10
2018-05-15T11:14:57.881Z,52.00
2018-05-15T11:17:24.926Z,55.20
2018-05-15T11:20:04.091Z,53.00
2018-05-15T11:22:42.615Z,53.00
2018-05-15T11:25:09.058Z,49.60
2018-05-15T11:27:35.404Z,50.30
2018-05-15T11:30:01.721Z,49.50
2018-05-15T11:32:28.049Z,49.20
2018-05-15T11:34:54.365Z,50.00
2018-05-15T11:37:20.956Z,49.80
2018-05-15T11:39:47.326Z,49.60
2018-05-15T11:42:13.787Z,49.10
2018-05-15T11:44:40.241Z,50.50
2018-05-15T11:47:06.805Z,49.00
2018-05-15T11:49:33.229Z,48.50
2018-05-15T11:52:00.241Z,47.60
2018-05-15T11:54:25.821Z,47.30
2018-05-15T11:56:52.159Z,48.10
2018-05-15T11:59:18.537Z,46.40
2018-05-15T12:01:44.889Z,45.80
2018-05-15T12:04:11.993Z,45.40
2018-05-15T12:06:38.573Z,45.30
2018-05-15T12:09:04.909Z,45.00
2018-05-15T12:11:31.997Z,43.50
2018-05-15T12:13:58.317Z,43.50
2018-05-15T12:16:24.629Z,42.30
2018-05-15T12:18:50.956Z,40.30
2018-05-15T12:21:17.262Z,40.50
2018-05-15T12:23:43.627Z,39.40
2018-05-15T12:26:10.834Z,41.40
2018-05-15T12:28:37.145Z,41.40
2018-05-15T12:31:03.483Z,40.90
2018-05-15T12:33:29.825Z,41.60
2018-05-15T12:35:56.223Z,43.40
2018-05-15T12:38:22.542Z,44.90
2018-05-15T12:40:48.894Z,45.50
2018-05-15T12:43:15.205Z,45.10
2018-05-15T12:45:42.425Z,45.10
2018-05-15T12:48:09.603Z,44.60
2018-05-15T12:50:35.905Z,44.50
2018-05-15T12:53:02.966Z,42.30
2018-05-15T12:55:29.521Z,42.30
2018-05-15T12:57:55.854Z,41.90
2018-05-15T13:00:22.279Z,42.80
2018-05-15T13:02:48.625Z,43.30
2018-05-15T13:05:15.755Z,44.10
2018-05-15T13:07:42.069Z,44.10
2018-05-15T13:10:09.224Z,45.90
2018-05-15T13:12:35.589Z,45.20
2018-05-15T13:15:01.914Z,46.70
2018-05-15T13:17:28.265Z,47.80
2018-05-15T13:19:54.652Z,49.00
2018-05-15T13:22:20.974Z,50.60
2018-05-15T13:24:48.119Z,50.70
2018-05-15T13:27:14.832Z,50.70
2018-05-15T13:29:41.230Z,49.20
2018-05-15T13:32:07.565Z,51.40
2018-05-15T13:34:33.925Z,49.70
2018-05-15T13:37:00.575Z,49.70
2018-05-15T13:39:26.953Z,49.90
2018-05-15T13:41:53.329Z,52.60
2018-05-15T13:44:19.647Z,53.70
2018-05-15T13:46:45.953Z,53.10
2018-05-15T13:49:12.365Z,53.70
2018-05-15T13:51:38.686Z,53.90
2018-05-15T13:54:05.765Z,54.40
2018-05-15T13:56:32.090Z,55.00
2018-05-15T13:58:59.190Z,55.20
2018-05-15T14:01:25.489Z,55.80
2018-05-15T14:03:51.822Z,56.20
2018-05-15T14:06:18.142Z,55.70
2018-05-15T14:08:44.529Z,56.10
2018-05-15T14:11:11.596Z,58.30
2018-05-15T14:13:37.930Z,58.20
2018-05-15T14:16:04.350Z,59.10
2018-05-15T14:18:30.666Z,60.60
2018-05-15T14:20:57.721Z,63.30
2018-05-15T14:23:24.819Z,63.60
2018-05-15T14:25:51.134Z,63.60
2018-05-15T14:28:17.448Z,64.30
2018-05-15T14:30:44.542Z,64.70
2018-05-15T14:33:11.046Z,64.70
2018-05-15T14:35:37.397Z,64.60
2018-05-15T14:38:03.754Z,65.20
2018-05-15T14:40:30.053Z,66.10
2018-05-15T14:43:08.545Z,67.40
2018-05-15T14:45:34.885Z,66.80
2018-05-15T14:48:01.197Z,66.50
2018-05-15T14:50:27.526Z,66.30
2018-05-15T14:52:53.870Z,67.30
2018-05-15T14:55:20.186Z,67.70
2018-05-15T14:57:46.514Z,68.00
2018-05-15T15:00:12.863Z,68.30
2018-05-15T15:02:39.980Z,69.10
2018-05-15T15:05:06.305Z,69.10
2018-05-15T15:07:32.825Z,69.60
2018-05-15T15:09:59.194Z,70.40
2018-05-15T15:12:25.494Z,69.50
2018-05-15T15:14:51.821Z,69.30
2018-05-15T15:17:18.464Z,68.80
2018-05-15T15:19:44.736Z,69.30
2018-05-15T15:22:11.158Z,69.80
2018-05-15T15:24:37.485Z,69.10
2018-05-15T15:27:03.861Z,68.70
2018-05-15T15:29:30.169Z,69.60
2018-05-15T15:31:56.485Z,70.20
2018-05-15T15:34:22.824Z,71.90
2018-05-15T15:36:49.425Z,72.70
2018-05-15T15:39:16.487Z,72.50
2018-05-15T15:41:43.567Z,73.00
2018-05-15T15:44:09.953Z,73.10
2018-05-15T15:46:36.470Z,74.30
2018-05-15T15:49:02.825Z,75.50
2018-05-15T15:51:29.878Z,76.50
2018-05-15T15:53:56.199Z,76.50
2018-05-15T15:56:23.669Z,77.10
2018-05-15T15:58:50.158Z,77.10
2018-05-15T16:01:16.469Z,77.00
2018-05-15T16:03:42.811Z,76.80
2018-05-15T16:06:09.226Z,77.20
2018-05-15T16:08:35.581Z,77.40
2018-05-15T16:11:01.906Z,77.20
2018-05-15T16:13:28.226Z,77.60
2018-05-15T16:15:54.622Z,77.80
2018-05-15T16:18:22.015Z,78.20
2018-05-15T16:20:48.587Z,78.10
2018-05-15T16:23:14.946Z,78.30
2018-05-15T16:25:42.217Z,78.10
2018-05-15T16:28:08.554Z,78.00
2018-05-15T16:30:34.870Z,77.60
2018-05-15T16:33:01.203Z,77.10
2018-05-15T16:35:27.505Z,77.70
2018-05-15T16:37:54.578Z,78.10
2018-05-15T16:40:20.893Z,78.10
2018-05-15T16:42:47.992Z,78.60
2018-05-15T16:45:15.065Z,78.10
2018-05-15T16:47:42.153Z,78.70
2018-05-15T16:50:08.470Z,78.60
2018-05-15T16:52:35.554Z,79.10
2018-05-15T16:55:02.102Z,79.10
2018-05-15T16:57:28.460Z,78.90
2018-05-15T16:59:54.769Z,77.30
2018-05-15T17:02:21.109Z,76.70
2018-05-15T17:04:47.432Z,77.00
2018-05-15T17:07:14.005Z,77.40
2018-05-15T17:09:41.139Z,76.70
2018-05-15T17:12:07.477Z,76.70
2018-05-15T17:14:33.798Z,77.20
2018-05-15T17:17:00.441Z,77.30
2018-05-15T17:19:26.746Z,77.40
2018-05-15T17:21:53.057Z,76.60
2018-05-15T17:24:19.389Z,76.80
2018-05-15T17:26:45.982Z,77.00
2018-05-15T17:29:13.128Z,76.80
2018-05-15T17:31:40.319Z,75.80
2018-05-15T17:34:06.657Z,75.70
2018-05-15T17:36:33.010Z,75.80
2018-05-15T17:38:59.321Z,75.90
2018-05-15T17:41:25.661Z,75.90
2018-05-15T17:43:52.009Z,75.90
2018-05-15T17:46:18.591Z,75.90
2018-05-15T17:48:45.978Z,74.50
2018-05-15T17:51:13.037Z,75.50
2018-05-15T17:53:39.348Z,75.50
2018-05-15T17:56:05.671Z,76.20
2018-05-15T17:58:32.022Z,76.10
2018-05-15T18:00:58.338Z,76.50
2018-05-15T18:03:24.645Z,76.00
2018-05-15T18:05:50.973Z,76.50
2018-05-15T18:08:18.118Z,77.80
2018-05-15T18:10:45.181Z,77.70
2018-05-15T18:13:11.582Z,77.70
2018-05-15T18:15:37.906Z,77.70
2018-05-15T18:18:04.217Z,78.50
2018-05-15T18:20:30.541Z,78.60
2018-05-15T18:22:57.607Z,79.20
2018-05-15T18:25:23.934Z,79.10
2018-05-15T18:27:50.241Z,79.10
2018-05-15T18:30:17.354Z,80.10
2018-05-15T18:32:44.494Z,80.70
2018-05-15T18:35:10.886Z,80.60
2018-05-15T18:37:37.233Z,80.90
2018-05-15T18:40:03.557Z,81.30
2018-05-15T18:42:29.900Z,81.80
2018-05-15T18:44:56.213Z,81.90
2018-05-15T18:47:22.615Z,81.30
2018-05-15T18:49:48.957Z,81.60
2018-05-15T18:52:15.403Z,82.10
2018-05-15T18:54:41.764Z,82.10
2018-05-15T18:57:08.405Z,82.20
2018-05-15T18:59:34.725Z,82.00
2018-05-15T19:02:01.059Z,81.80
2018-05-15T19:04:27.422Z,81.60
2018-05-15T19:06:53.918Z,81.60
2018-05-15T19:09:20.286Z,81.60
2018-05-15T19:11:46.617Z,81.40
2018-05-15T19:14:13.738Z,81.20
2018-05-15T19:16:40.417Z,81.10
2018-05-15T19:19:06.733Z,80.80
2018-05-15T19:21:33.053Z,81.00
2018-05-15T19:24:00.154Z,81.40
2018-05-15T19:26:26.505Z,81.30
2018-05-15T19:28:52.814Z,81.20
2018-05-15T19:31:25.219Z,81.30
2018-05-15T19:33:51.549Z,81.80
2018-05-15T19:36:18.209Z,81.50
2018-05-15T19:38:45.470Z,81.70
2018-05-15T19:41:24.414Z,81.90
2018-05-15T19:43:50.774Z,81.80
2018-05-15T19:46:17.292Z,81.80
2018-05-15T19:48:43.721Z,82.10
2018-05-15T19:51:10.032Z,82.30
2018-05-15T19:53:36.389Z,82.40
2018-05-15T19:56:02.807Z,82.50
2018-05-15T19:58:29.106Z,82.70
2018-05-15T20:00:55.438Z,82.30
2018-05-15T20:03:22.597Z,82.40
2018-05-15T20:05:49.949Z,82.00
2018-05-15T20:08:17.005Z,82.30
2018-05-15T20:10:44.136Z,83.20
2018-05-15T20:13:10.485Z,82.50
2018-05-15T20:15:36.873Z,82.40
2018-05-15T20:18:03.188Z,82.60
2018-05-15T20:20:29.523Z,82.40
2018-05-15T20:22:55.858Z,82.50
2018-05-15T20:25:22.305Z,82.80
2018-05-15T20:27:48.667Z,82.60
2018-05-15T20:30:15.801Z,82.40
2018-05-15T20:32:42.243Z,82.30
2018-05-15T20:35:08.699Z,82.40
2018-05-15T20:37:35.085Z,82.40
2018-05-15T20:40:01.407Z,82.70
2018-05-15T20:42:27.753Z,82.80
2018-05-15T20:44:54.090Z,83.10
2018-05-15T20:47:20.462Z,83.40
2018-05-15T20:49:46.821Z,83.30
2018-05-15T20:52:13.285Z,83.40
2018-05-15T20:54:39.607Z,83.70
2018-05-15T20:57:05.925Z,83.90
2018-05-15T20:59:32.249Z,83.80
2018-05-15T21:01:59.347Z,83.80
2018-05-15T21:04:26.431Z,83.70
2018-05-15T21:06:52.737Z,83.70
2018-05-15T21:09:19.886Z,83.10
2018-05-15T21:11:47.370Z,83.20
2018-05-15T21:14:13.789Z,83.20
2018-05-15T21:16:40.143Z,83.40
2018-05-15T21:19:07.506Z,83.40
2018-05-15T21:21:34.276Z,83.40
2018-05-15T21:24:02.133Z,83.60
2018-05-15T21:26:28.921Z,83.50
2018-05-15T21:31:36.637Z,83.40
2018-05-15T21:34:03.889Z,83.40
2018-05-15T21:36:30.402Z,83.30
2018-05-15T21:38:57.452Z,83.10
2018-05-15T21:41:24.518Z,82.70
2018-05-15T21:43:50.853Z,82.60
2018-05-15T21:46:17.483Z,83.10
2018-05-15T21:48:43.813Z,83.30
2018-05-15T21:51:10.130Z,83.40
2018-05-15T21:53:37.233Z,83.50
2018-05-15T21:56:04.331Z,83.60
2018-05-15T21:58:31.389Z,83.50
2018-05-15T22:00:57.891Z,83.50
2018-05-15T22:03:24.402Z,83.60
2018-05-15T22:05:50.865Z,83.60
2018-05-15T22:08:17.520Z,83.60
2018-05-15T22:10:44.884Z,83.70
2018-05-15T22:13:24.394Z,83.80
2018-05-15T22:16:03.386Z,83.70
2018-05-15T22:18:41.901Z,83.30
2018-05-15T22:21:20.471Z,83.40
2018-05-15T22:23:47.492Z,83.30
2018-05-15T22:26:17.395Z,83.20
2018-05-15T22:28:50.649Z,83.80
2018-05-15T22:31:17.847Z,84.00
2018-05-15T22:33:44.370Z,83.60
2018-05-15T22:36:10.787Z,84.10
2018-05-15T22:38:37.154Z,83.60
2018-05-15T22:41:04.381Z,82.80
2018-05-15T22:43:30.751Z,82.70
2018-05-15T22:45:57.901Z,82.30
2018-05-15T22:48:25.145Z,82.50
2018-05-15T22:50:51.486Z,82.50
2018-05-15T22:53:18.008Z,82.30
2018-05-15T22:55:45.615Z,82.00
2018-05-15T22:58:12.452Z,81.80
2018-05-15T23:00:38.973Z,82.10
2018-05-15T23:03:05.813Z,82.70
2018-05-15T23:05:32.438Z,82.90
2018-05-15T23:07:59.152Z,83.20
2018-05-15T23:10:25.608Z,83.50
2018-05-15T23:12:52.081Z,83.70
2018-05-15T23:15:18.538Z,84.10
2018-05-15T23:17:45.226Z,84.10
2018-05-15T23:20:12.553Z,84.50
2018-05-15T23:22:41.837Z,84.40
2018-05-15T23:25:08.232Z,84.40
2018-05-15T23:27:34.841Z,84.60
2018-05-15T23:30:01.159Z,84.60
2018-05-15T23:32:27.495Z,84.30
2018-05-15T23:34:53.835Z,84.20
2018-05-15T23:37:20.370Z,84.10
2018-05-15T23:39:46.693Z,84.10
2018-05-15T23:42:13.031Z,84.50
2018-05-15T23:44:39.357Z,84.20
2018-05-15T23:47:05.865Z,84.80
2018-05-15T23:49:32.940Z,84.20
2018-05-15T23:51:59.481Z,84.10
2018-05-15T23:54:26.575Z,83.60
2018-05-15T23:56:52.951Z,83.60
2018-05-15T23:59:19.292Z,83.10
